Overview Statistics Trail Chart Weather Telemetry Raw packets
 

This is the latest recevied weather packets stored in our database for station/object KY0TEQ-13. If no packets are shown the sender has not sent any weather packets the latest 10 day(s).

<< 50 51 52 53 54 55 56 >>
Time Temp. Humidity Pressure Rain* Wind** Luminosity Snow
1788342283 11.67° C 55% 1310.1 hPa 0 mm - 0 W/m² -
1788341978 11.67° C 56% 1310.1 hPa 0 mm - 0 W/m² -
1788341673 12.22° C 57% 1310 hPa 0 mm - 0 W/m² -
1788341372 12.78° C 52% 1309.9 hPa 0 mm - 0 W/m² -
1788341068 12.78° C 52% 1309.7 hPa 0 mm - 0 W/m² -
1788340768 13.33° C 51% 1309.9 hPa 0 mm - 0 W/m² -
1788340463 12.78° C 51% 1309.9 hPa 0 mm - 0 W/m² -
1788340159 12.78° C 55% 1309.9 hPa 0 mm - 0 W/m² -
1788339854 13.33° C 50% 1309.7 hPa 0 mm - 0 W/m² -
1788339553 13.33° C 50% 1309.9 hPa 0 mm - 0 W/m² -
1788339248 12.78° C 50% 1309.9 hPa 0 mm - 0 W/m² -
1788338943 12.78° C 51% 1310 hPa 0 mm - 0 W/m² -
1788338640 12.78° C 51% 1310.1 hPa 0 mm - 0 W/m² -
1788338335 13.89° C 50% 1309.9 hPa 0 mm - 0 W/m² -
1788338035 13.89° C 46% 1310 hPa 0 mm - 0 W/m² -
1788337730 14.44° C 46% 1309.9 hPa 0 mm - 0 W/m² -
1788337426 13.89° C 46% 1310 hPa 0 mm - 0 W/m² -
1788337123 13.33° C 48% 1309.9 hPa 0 mm - 0 W/m² -
1788336818 13.89° C 47% 1310.1 hPa 0 mm - 0 W/m² -
1788336518 13.33° C 49% 1310 hPa 0 mm - 0 W/m² -
1788336215 12.78° C 52% 1310.1 hPa 0 mm - 0 W/m² -
1788335914 13.33° C 50% 1310.2 hPa 0 mm - 0 W/m² -
1788335610 13.89° C 49% 1309.9 hPa 0 mm - 0 W/m² -
1788335305 13.89° C 49% 1310 hPa 0 mm - 0 W/m² -
1788335001 13.33° C 49% 1310 hPa 0 mm - 0 W/m² -

* Rain latest hour (hover to see other rain measurements)
** Current wind speed in m/s (hover to see current wind gust speed)